createdAt,value
2023-03-11T00:00:47.290Z,97474.00
2023-03-11T00:03:18.164Z,97482.00
2023-03-11T00:05:47.039Z,97446.00
2023-03-11T00:08:18.251Z,97485.00
2023-03-11T00:10:48.289Z,97475.00
2023-03-11T00:13:16.733Z,97480.00
2023-03-11T00:15:48.410Z,97482.00
2023-03-11T00:18:16.384Z,97483.00
2023-03-11T00:20:46.823Z,97479.00
2023-03-11T00:23:15.804Z,97479.00
2023-03-11T00:25:45.660Z,97470.00
2023-03-11T00:28:14.925Z,97466.00
2023-03-11T00:30:44.254Z,97466.00
2023-03-11T00:33:14.102Z,97451.00
2023-03-11T00:35:42.315Z,97459.00
2023-03-11T00:38:15.267Z,97456.00
2023-03-11T00:40:43.749Z,97448.00
2023-03-11T00:43:11.222Z,97446.00
2023-03-11T00:45:38.774Z,97426.00
2023-03-11T00:48:06.808Z,97428.00
2023-03-11T00:50:36.885Z,97427.00
2023-03-11T00:53:05.720Z,97417.00
2023-03-11T00:55:35.206Z,97416.00
2023-03-11T00:58:05.952Z,97415.00
2023-03-11T01:00:34.599Z,97410.00
2023-03-11T01:03:02.562Z,97410.00
2023-03-11T01:05:33.207Z,97364.00
2023-03-11T01:08:01.590Z,97404.00
2023-03-11T01:10:30.928Z,97398.00
2023-03-11T01:12:57.891Z,97396.00
2023-03-11T01:15:35.537Z,97388.00
2023-03-11T01:18:03.650Z,97385.00
2023-03-11T01:20:30.659Z,97377.00
2023-03-11T01:23:00.472Z,97366.00
2023-03-11T01:25:30.663Z,97378.00
2023-03-11T01:27:58.210Z,97377.00
2023-03-11T01:30:27.941Z,97386.00
2023-03-11T01:32:59.651Z,97392.00
2023-03-11T01:35:30.176Z,97399.00
2023-03-11T01:38:05.329Z,97406.00
2023-03-11T01:40:48.192Z,97401.00
2023-03-11T01:43:43.268Z,97398.00
2023-03-11T01:46:36.950Z,97404.00
2023-03-11T01:49:20.878Z,97414.00
2023-03-11T01:51:57.435Z,97403.00
2023-03-11T01:54:30.300Z,97417.00
2023-03-11T01:57:09.220Z,97407.00
2023-03-11T01:59:52.767Z,97403.00
2023-03-11T02:03:05.169Z,97414.00
2023-03-11T02:05:38.218Z,97424.00
2023-03-11T02:08:09.609Z,97415.00
2023-03-11T02:10:43.345Z,97414.00
2023-03-11T02:13:16.200Z,97406.00
2023-03-11T02:15:51.064Z,97412.00
2023-03-11T02:18:23.250Z,97404.00
2023-03-11T02:21:27.665Z,97416.00
2023-03-11T02:24:19.695Z,97421.00
2023-03-11T02:27:13.664Z,97424.00
2023-03-11T02:29:52.602Z,97421.00
2023-03-11T02:32:24.545Z,97410.00
2023-03-11T02:35:02.414Z,97425.00
2023-03-11T02:37:41.698Z,97425.00
2023-03-11T02:40:58.392Z,97431.00
2023-03-11T02:43:50.359Z,97428.00
2023-03-11T02:46:31.891Z,97425.00
2023-03-11T02:49:04.735Z,97421.00
2023-03-11T02:51:38.229Z,97423.00
2023-03-11T02:54:18.074Z,97426.00
2023-03-11T02:56:48.783Z,97423.00
2023-03-11T02:59:29.126Z,97426.00
2023-03-11T03:02:08.494Z,97423.00
2023-03-11T03:04:44.200Z,97433.00
2023-03-11T03:07:23.677Z,97440.00
2023-03-11T03:10:02.760Z,97435.00
2023-03-11T03:12:36.815Z,97439.00
2023-03-11T03:15:21.851Z,97436.00
2023-03-11T03:17:56.776Z,97450.00
2023-03-11T03:20:33.673Z,97443.00
2023-03-11T03:23:08.944Z,97438.00
2023-03-11T03:25:48.862Z,97437.00
2023-03-11T03:28:29.156Z,97450.00
2023-03-11T03:31:12.394Z,97437.00
2023-03-11T03:33:45.304Z,97431.00
2023-03-11T03:36:19.277Z,97391.00
2023-03-11T03:39:06.865Z,97433.00
2023-03-11T03:41:35.880Z,97439.00
2023-03-11T03:44:13.582Z,97448.00
2023-03-11T03:46:50.285Z,97448.00
2023-03-11T03:49:30.906Z,97457.00
2023-03-11T03:52:21.024Z,97471.00
2023-03-11T03:54:57.170Z,97463.00
2023-03-11T03:57:35.185Z,97464.00
2023-03-11T04:00:15.365Z,97472.00
2023-03-11T04:02:47.407Z,97466.00
2023-03-11T04:05:20.149Z,97479.00
2023-03-11T04:08:01.408Z,97475.00
2023-03-11T04:10:34.305Z,97475.00
2023-03-11T04:13:03.985Z,97484.00
2023-03-11T04:15:39.869Z,97468.00
2023-03-11T04:18:15.343Z,97489.00
2023-03-11T04:21:01.936Z,97490.00
2023-03-11T04:23:44.843Z,97487.00
2023-03-11T04:26:17.277Z,97495.00
2023-03-11T04:29:00.130Z,97483.00
2023-03-11T04:31:41.015Z,97488.00
2023-03-11T04:34:16.265Z,97498.00
2023-03-11T04:36:45.783Z,97491.00
2023-03-11T04:39:18.769Z,97496.00
2023-03-11T04:41:52.238Z,97499.00
2023-03-11T04:44:25.381Z,97509.00
2023-03-11T04:47:02.482Z,97505.00
2023-03-11T04:49:31.424Z,97514.00
2023-03-11T04:51:58.336Z,97504.00
2023-03-11T04:54:31.096Z,97515.00
2023-03-11T04:57:03.912Z,97527.00
2023-03-11T04:59:40.441Z,97529.00
2023-03-11T05:02:24.148Z,97523.00
2023-03-11T05:04:55.654Z,97536.00
2023-03-11T05:07:29.076Z,97539.00
2023-03-11T05:10:00.804Z,97536.00
2023-03-11T05:12:37.177Z,97547.00
2023-03-11T05:15:10.767Z,97549.00
2023-03-11T05:17:48.531Z,97543.00
2023-03-11T05:20:23.814Z,97555.00
2023-03-11T05:22:55.588Z,97568.00
2023-03-11T05:25:29.587Z,97557.00
2023-03-11T05:27:57.702Z,97562.00
2023-03-11T05:30:30.800Z,97564.00
2023-03-11T05:33:01.732Z,97572.00
2023-03-11T05:35:36.756Z,97575.00
2023-03-11T05:38:05.102Z,97583.00
2023-03-11T05:40:35.154Z,97585.00
2023-03-11T05:43:05.273Z,97585.00
2023-03-11T05:45:32.236Z,97596.00
2023-03-11T05:48:00.543Z,97565.00
2023-03-11T05:50:37.824Z,97601.00
2023-03-11T05:53:09.833Z,97595.00
2023-03-11T05:55:38.189Z,97615.00
2023-03-11T05:58:08.203Z,97600.00
2023-03-11T06:00:44.705Z,97610.00
2023-03-11T06:03:14.836Z,97622.00
2023-03-11T06:05:54.027Z,97610.00
2023-03-11T06:08:22.010Z,97626.00
2023-03-11T06:11:13.124Z,97617.00
2023-03-11T06:13:41.243Z,97629.00
2023-03-11T06:16:11.343Z,97637.00
2023-03-11T06:18:41.826Z,97645.00
2023-03-11T06:21:21.330Z,97654.00
2023-03-11T06:23:58.402Z,97661.00
2023-03-11T06:26:25.826Z,97685.00
2023-03-11T06:28:53.128Z,97679.00
2023-03-11T06:31:25.260Z,97678.00
2023-03-11T06:34:04.478Z,97678.00
2023-03-11T06:36:35.169Z,97698.00
2023-03-11T06:39:14.150Z,97699.00
2023-03-11T06:41:46.652Z,97711.00
2023-03-11T06:44:14.510Z,97702.00
2023-03-11T06:46:50.136Z,97680.00
2023-03-11T06:49:17.245Z,97687.00
2023-03-11T06:51:48.927Z,97731.00
2023-03-11T06:54:16.045Z,97740.00
2023-03-11T06:56:42.861Z,97743.00
2023-03-11T06:59:09.849Z,97747.00
2023-03-11T07:01:37.074Z,97751.00
2023-03-11T07:04:04.048Z,97751.00
2023-03-11T07:06:30.985Z,97749.00
2023-03-11T07:08:57.945Z,97765.00
2023-03-11T07:11:27.722Z,97773.00
2023-03-11T07:13:55.663Z,97783.00
2023-03-11T07:16:27.382Z,97786.00
2023-03-11T07:19:01.561Z,97798.00
2023-03-11T07:21:31.646Z,97797.00
2023-03-11T07:24:01.852Z,97809.00
2023-03-11T07:26:30.917Z,97807.00
2023-03-11T07:28:58.744Z,97802.00
2023-03-11T07:31:30.557Z,97829.00
2023-03-11T07:34:00.866Z,97835.00
2023-03-11T07:36:29.587Z,97844.00
2023-03-11T07:39:04.419Z,97840.00
2023-03-11T07:41:34.938Z,97846.00
2023-03-11T07:44:04.154Z,97846.00
2023-03-11T07:46:31.699Z,97855.00
2023-03-11T07:48:58.999Z,97868.00
2023-03-11T07:51:32.672Z,97870.00
2023-03-11T07:54:01.413Z,97882.00
2023-03-11T07:56:32.922Z,97885.00
2023-03-11T07:59:02.319Z,97880.00
2023-03-11T08:01:36.225Z,97883.00
2023-03-11T08:04:06.817Z,97888.00
2023-03-11T08:06:35.792Z,97872.00
2023-03-11T08:09:08.010Z,97905.00
2023-03-11T08:11:36.427Z,97901.00
2023-03-11T08:14:04.716Z,97894.00
2023-03-11T08:16:31.877Z,97916.00
2023-03-11T08:18:59.150Z,97892.00
2023-03-11T08:21:29.943Z,97928.00
2023-03-11T08:24:02.388Z,97935.00
2023-03-11T08:26:30.800Z,97938.00
2023-03-11T08:28:59.092Z,97943.00
2023-03-11T08:31:30.687Z,97956.00
2023-03-11T08:34:10.275Z,97919.00
2023-03-11T08:36:37.228Z,97958.00
2023-03-11T08:39:04.363Z,97930.00
2023-03-11T08:41:31.276Z,97982.00
2023-03-11T08:43:58.397Z,97981.00
2023-03-11T08:46:28.784Z,97990.00
2023-03-11T08:49:01.360Z,97992.00
2023-03-11T08:51:31.056Z,97990.00
2023-03-11T08:53:58.835Z,98004.00
2023-03-11T08:56:27.135Z,97991.00
2023-03-11T08:58:54.290Z,98007.00
2023-03-11T09:01:22.902Z,98004.00
2023-03-11T09:03:49.782Z,98025.00
2023-03-11T09:06:18.302Z,98016.00
2023-03-11T09:08:46.690Z,98036.00
2023-03-11T09:11:15.504Z,98047.00
2023-03-11T09:13:43.706Z,98052.00
2023-03-11T09:16:22.400Z,98053.00
2023-03-11T09:18:49.555Z,98065.00
2023-03-11T09:21:16.613Z,98069.00
2023-03-11T09:23:44.500Z,98068.00
2023-03-11T09:26:12.486Z,98077.00
2023-03-11T09:28:40.127Z,98062.00
2023-03-11T09:31:07.504Z,98073.00
2023-03-11T09:33:42.395Z,98069.00
2023-03-11T09:36:20.914Z,98083.00
2023-03-11T09:38:48.741Z,98088.00
2023-03-11T09:41:18.485Z,98081.00
2023-03-11T09:44:09.639Z,98104.00
2023-03-11T09:47:28.831Z,98105.00
2023-03-11T09:50:31.474Z,98107.00
2023-03-11T09:53:08.539Z,98099.00
2023-03-11T09:55:47.957Z,98114.00
2023-03-11T09:58:21.104Z,98117.00
2023-03-11T10:00:50.223Z,98121.00
2023-03-11T10:03:32.826Z,98127.00
2023-03-11T10:06:19.700Z,98139.00
2023-03-11T10:09:39.970Z,98137.00
2023-03-11T10:12:39.314Z,98143.00
2023-03-11T10:15:39.612Z,98145.00
2023-03-11T10:18:47.754Z,98155.00
2023-03-11T10:22:08.174Z,98165.00
2023-03-11T10:25:16.488Z,98176.00
2023-03-11T10:27:55.167Z,98171.00
2023-03-11T10:30:34.686Z,98182.00
2023-03-11T10:33:38.536Z,98188.00
2023-03-11T10:36:14.219Z,98192.00
2023-03-11T10:38:47.531Z,98191.00
2023-03-11T10:41:43.851Z,98202.00
2023-03-11T10:44:19.660Z,98203.00
2023-03-11T10:46:46.591Z,98218.00
2023-03-11T10:49:18.280Z,98187.00
2023-03-11T10:51:57.149Z,98224.00
2023-03-11T10:54:58.423Z,98236.00
2023-03-11T10:57:35.883Z,98244.00
2023-03-11T11:00:17.318Z,98250.00
2023-03-11T11:02:59.957Z,98244.00
2023-03-11T11:05:34.845Z,98251.00
2023-03-11T11:08:17.186Z,98268.00
2023-03-11T11:10:53.199Z,98252.00
2023-03-11T11:13:24.017Z,98260.00
2023-03-11T11:16:16.728Z,98259.00
2023-03-11T11:18:49.674Z,98270.00
2023-03-11T11:21:39.674Z,98278.00
2023-03-11T11:24:28.994Z,98275.00
2023-03-11T11:27:19.297Z,98288.00
2023-03-11T11:29:48.756Z,98286.00
2023-03-11T11:32:17.551Z,98296.00
2023-03-11T11:35:05.316Z,98283.00
2023-03-11T11:37:48.566Z,98307.00
2023-03-11T11:40:15.848Z,98293.00
2023-03-11T11:42:54.559Z,98309.00
2023-03-11T11:45:38.234Z,98302.00
2023-03-11T11:48:32.695Z,98192.00
2023-03-11T11:51:06.488Z,98318.00
2023-03-11T11:53:57.922Z,98319.00
2023-03-11T11:56:27.055Z,98315.00
2023-03-11T11:58:55.497Z,98320.00
2023-03-11T12:01:32.605Z,98326.00
2023-03-11T12:04:47.395Z,98332.00
2023-03-11T12:07:17.656Z,98338.00
2023-03-11T12:10:22.281Z,98341.00
2023-03-11T12:13:15.932Z,98356.00
2023-03-11T12:16:00.167Z,98362.00
2023-03-11T12:18:35.353Z,98369.00
2023-03-11T12:21:31.201Z,98368.00
2023-03-11T12:24:25.450Z,98376.00
2023-03-11T12:26:57.482Z,98377.00
2023-03-11T12:29:46.284Z,98375.00
2023-03-11T12:33:13.558Z,98386.00
2023-03-11T12:35:47.390Z,98389.00
2023-03-11T12:38:32.351Z,98403.00
2023-03-11T12:41:41.881Z,98402.00
2023-03-11T12:44:28.808Z,98400.00
2023-03-11T12:46:58.443Z,98409.00
2023-03-11T12:49:35.061Z,98416.00
2023-03-11T12:52:24.429Z,98419.00
2023-03-11T12:55:01.022Z,98415.00
2023-03-11T12:57:40.555Z,98419.00
2023-03-11T13:00:19.644Z,98428.00
2023-03-11T13:03:16.657Z,98439.00
2023-03-11T13:05:57.332Z,98430.00
2023-03-11T13:08:37.618Z,98436.00
2023-03-11T13:11:33.501Z,98439.00
2023-03-11T13:14:20.016Z,98446.00
2023-03-11T13:16:48.090Z,98455.00
2023-03-11T13:19:48.019Z,98462.00
2023-03-11T13:22:53.377Z,98472.00
2023-03-11T13:25:32.942Z,98474.00
2023-03-11T13:28:39.432Z,98474.00
2023-03-11T13:31:44.185Z,98479.00
2023-03-11T13:34:40.549Z,98486.00
2023-03-11T13:37:36.571Z,98494.00
2023-03-11T13:40:33.134Z,98504.00
2023-03-11T13:43:25.030Z,98505.00
2023-03-11T13:45:57.996Z,98516.00
2023-03-11T13:48:57.107Z,98510.00
2023-03-11T13:51:38.259Z,98514.00
2023-03-11T13:54:20.229Z,98521.00
2023-03-11T13:56:56.828Z,98516.00
2023-03-11T13:59:38.015Z,98525.00
2023-03-11T14:02:19.650Z,98536.00
2023-03-11T14:04:54.599Z,98546.00
2023-03-11T14:07:27.493Z,98546.00
2023-03-11T14:10:24.028Z,98559.00
2023-03-11T14:12:51.620Z,98575.00
2023-03-11T14:15:27.598Z,98554.00
2023-03-11T14:18:34.516Z,98566.00
2023-03-11T14:21:03.572Z,98575.00
2023-03-11T14:23:41.348Z,98566.00
2023-03-11T14:26:18.925Z,98577.00
2023-03-11T14:28:57.167Z,98570.00
2023-03-11T14:31:37.413Z,98590.00
2023-03-11T14:34:16.683Z,98585.00
2023-03-11T14:36:54.215Z,98595.00
2023-03-11T14:39:46.312Z,98589.00
2023-03-11T14:42:34.084Z,98604.00
2023-03-11T14:45:15.878Z,98608.00
2023-03-11T14:48:20.312Z,98600.00
2023-03-11T14:50:49.922Z,98603.00
2023-03-11T14:53:33.217Z,98610.00
2023-03-11T14:56:12.399Z,98614.00
2023-03-11T14:59:01.615Z,98614.00
2023-03-11T15:01:41.014Z,98619.00
2023-03-11T15:04:32.584Z,98631.00
2023-03-11T15:07:01.541Z,98628.00
2023-03-11T15:09:30.238Z,98635.00
2023-03-11T15:12:01.267Z,98639.00
2023-03-11T15:14:36.291Z,98646.00
2023-03-11T15:17:41.138Z,98622.00
2023-03-11T15:20:36.018Z,98652.00
2023-03-11T15:23:06.386Z,98659.00
2023-03-11T15:25:37.674Z,98666.00
2023-03-11T15:28:31.775Z,98654.00
2023-03-11T15:31:21.022Z,98662.00
2023-03-11T15:33:49.537Z,98661.00
2023-03-11T15:36:32.943Z,98666.00
2023-03-11T15:39:39.939Z,98670.00
2023-03-11T15:42:06.723Z,98670.00
2023-03-11T15:44:48.203Z,98669.00
2023-03-11T15:47:18.918Z,98665.00
2023-03-11T15:49:46.386Z,98681.00
2023-03-11T15:52:13.997Z,98676.00
2023-03-11T15:54:41.349Z,98691.00
2023-03-11T15:57:13.715Z,98687.00
2023-03-11T15:59:42.473Z,98697.00
2023-03-11T16:02:26.301Z,98691.00
2023-03-11T16:04:56.138Z,98705.00
2023-03-11T16:07:38.158Z,98705.00
2023-03-11T16:10:07.397Z,98716.00
2023-03-11T16:12:34.494Z,98722.00
2023-03-11T16:15:01.755Z,98718.00
2023-03-11T16:17:39.491Z,98726.00
2023-03-11T16:20:13.900Z,98729.00
2023-03-11T16:22:40.899Z,98739.00
2023-03-11T16:25:20.269Z,98740.00
2023-03-11T16:27:48.259Z,98738.00
2023-03-11T16:30:16.185Z,98745.00
2023-03-11T16:32:43.632Z,98751.00
2023-03-11T16:35:11.920Z,98751.00
2023-03-11T16:37:41.921Z,98724.00
2023-03-11T16:40:15.392Z,98760.00
2023-03-11T16:42:43.676Z,98766.00
2023-03-11T16:45:16.711Z,98777.00
2023-03-11T16:47:43.986Z,98768.00
2023-03-11T16:50:12.159Z,98772.00
2023-03-11T16:52:39.261Z,98768.00
2023-03-11T16:55:07.089Z,98780.00
2023-03-11T16:57:33.985Z,98781.00
2023-03-11T17:00:00.819Z,98782.00
2023-03-11T17:02:27.883Z,98787.00
2023-03-11T17:04:54.823Z,98792.00
2023-03-11T17:07:24.134Z,98792.00
2023-03-11T17:09:51.609Z,98798.00
2023-03-11T17:12:19.236Z,98794.00
2023-03-11T17:14:46.825Z,98805.00
2023-03-11T17:17:13.696Z,98813.00
2023-03-11T17:19:40.564Z,98806.00
2023-03-11T17:22:07.547Z,98824.00
2023-03-11T17:24:34.584Z,98809.00
2023-03-11T17:27:01.460Z,98822.00
2023-03-11T17:29:29.510Z,98820.00
2023-03-11T17:31:56.404Z,98818.00
2023-03-11T17:34:23.553Z,98832.00
2023-03-11T17:36:50.717Z,98832.00
2023-03-11T17:39:17.903Z,98836.00
2023-03-11T17:41:44.971Z,98820.00
2023-03-11T17:44:12.724Z,98821.00
2023-03-11T17:46:40.739Z,98827.00
2023-03-11T17:49:14.284Z,98841.00
2023-03-11T17:51:41.466Z,98831.00
2023-03-11T17:54:08.299Z,98838.00
2023-03-11T17:56:35.298Z,98840.00
2023-03-11T17:59:02.147Z,98840.00
2023-03-11T18:01:29.806Z,98835.00
2023-03-11T18:03:56.732Z,98845.00
2023-03-11T18:06:24.279Z,98847.00
2023-03-11T18:08:51.487Z,98848.00
2023-03-11T18:11:23.678Z,98852.00
2023-03-11T18:13:51.258Z,98809.00
2023-03-11T18:16:26.103Z,98853.00
2023-03-11T18:18:54.409Z,98854.00
2023-03-11T18:21:25.444Z,98857.00
2023-03-11T18:23:55.230Z,98865.00
2023-03-11T18:26:24.418Z,98863.00
2023-03-11T18:28:56.808Z,98843.00
2023-03-11T18:31:26.315Z,98863.00
2023-03-11T18:34:00.435Z,98871.00
2023-03-11T18:36:33.048Z,98869.00
2023-03-11T18:39:01.545Z,98871.00
2023-03-11T18:41:33.471Z,98868.00
2023-03-11T18:44:01.477Z,98877.00
2023-03-11T18:46:31.891Z,98873.00
2023-03-11T18:49:01.617Z,98866.00
2023-03-11T18:51:31.194Z,98867.00
2023-03-11T18:53:59.023Z,98872.00
2023-03-11T18:56:26.147Z,98865.00
2023-03-11T18:58:54.080Z,98872.00
2023-03-11T19:01:22.034Z,98886.00
2023-03-11T19:04:00.262Z,98878.00
2023-03-11T19:06:29.213Z,98875.00
2023-03-11T19:08:57.801Z,98887.00
2023-03-11T19:11:25.977Z,98887.00
2023-03-11T19:13:52.951Z,98890.00
2023-03-11T19:16:24.263Z,98891.00
2023-03-11T19:18:53.749Z,98893.00
2023-03-11T19:21:20.958Z,98895.00
2023-03-11T19:23:50.000Z,98894.00
2023-03-11T19:26:16.942Z,98891.00
2023-03-11T19:28:43.915Z,98887.00
2023-03-11T19:31:10.837Z,98902.00
2023-03-11T19:33:37.784Z,98894.00
2023-03-11T19:36:07.458Z,98909.00
2023-03-11T19:38:35.719Z,98902.00
2023-03-11T19:41:07.875Z,98907.00
2023-03-11T19:43:35.819Z,98917.00
2023-03-11T19:46:08.107Z,98914.00
2023-03-11T19:48:35.351Z,98900.00
2023-03-11T19:51:03.302Z,98908.00
2023-03-11T19:53:30.258Z,98893.00
2023-03-11T19:55:58.130Z,98919.00
2023-03-11T19:58:30.236Z,98923.00
2023-03-11T20:00:59.289Z,98924.00
2023-03-11T20:03:27.084Z,98923.00
2023-03-11T20:05:56.693Z,98946.00
2023-03-11T20:08:25.676Z,98929.00
2023-03-11T20:10:53.769Z,98942.00
2023-03-11T20:13:23.224Z,98935.00
2023-03-11T20:15:50.691Z,98924.00
2023-03-11T20:18:18.300Z,98938.00
2023-03-11T20:20:46.577Z,98933.00
2023-03-11T20:23:14.263Z,98927.00
2023-03-11T20:25:42.324Z,98935.00
2023-03-11T20:28:11.180Z,98931.00
2023-03-11T20:30:39.385Z,98919.00
2023-03-11T20:33:07.693Z,98945.00
2023-03-11T20:35:35.282Z,98927.00
2023-03-11T20:38:03.042Z,98923.00
2023-03-11T20:40:30.506Z,98921.00
2023-03-11T20:42:57.461Z,98918.00
2023-03-11T20:45:24.371Z,98914.00
2023-03-11T20:47:53.536Z,98915.00
2023-03-11T20:50:25.274Z,98909.00
2023-03-11T20:52:52.272Z,98915.00
2023-03-11T20:55:19.524Z,98914.00
2023-03-11T20:57:46.698Z,98907.00
2023-03-11T21:00:14.616Z,98883.00
2023-03-11T21:02:43.265Z,98905.00
2023-03-11T21:05:12.502Z,98907.00
2023-03-11T21:07:40.544Z,98901.00
2023-03-11T21:10:11.873Z,98905.00
2023-03-11T21:12:38.870Z,98911.00
2023-03-11T21:15:09.386Z,98907.00
2023-03-11T21:17:37.435Z,98899.00
2023-03-11T21:20:06.486Z,98904.00
2023-03-11T21:22:34.183Z,98903.00
2023-03-11T21:25:01.241Z,98898.00
2023-03-11T21:27:28.153Z,98902.00
2023-03-11T21:29:59.608Z,98913.00
2023-03-11T21:32:28.616Z,98906.00
2023-03-11T21:34:59.844Z,98899.00
2023-03-11T21:37:28.334Z,98906.00
2023-03-11T21:39:55.418Z,98909.00
2023-03-11T21:42:22.910Z,98901.00
2023-03-11T21:44:51.363Z,98904.00
2023-03-11T21:47:19.622Z,98907.00
2023-03-11T21:49:46.657Z,98895.00
2023-03-11T21:52:13.630Z,98903.00
2023-03-11T21:54:40.659Z,98889.00
2023-03-11T21:57:07.561Z,98900.00
2023-03-11T21:59:34.573Z,98883.00
2023-03-11T22:02:03.278Z,98866.00
2023-03-11T22:04:31.981Z,98859.00
2023-03-11T22:06:59.066Z,98864.00
2023-03-11T22:09:26.314Z,98863.00
2023-03-11T22:11:56.120Z,98861.00
2023-03-11T22:14:24.114Z,98863.00
2023-03-11T22:16:51.270Z,98855.00
2023-03-11T22:19:18.588Z,98863.00
2023-03-11T22:21:45.885Z,98846.00
2023-03-11T22:24:12.705Z,98850.00
2023-03-11T22:26:39.670Z,98850.00
2023-03-11T22:29:08.841Z,98855.00
2023-03-11T22:31:35.949Z,98843.00
2023-03-11T22:34:02.890Z,98855.00
2023-03-11T22:36:29.804Z,98847.00
2023-03-11T22:38:58.874Z,98848.00
2023-03-11T22:41:25.782Z,98845.00
2023-03-11T22:43:52.620Z,98840.00
2023-03-11T22:46:19.607Z,98830.00
2023-03-11T22:48:46.522Z,98839.00
2023-03-11T22:51:13.426Z,98841.00
2023-03-11T22:53:40.279Z,98828.00
2023-03-11T22:56:13.370Z,98824.00
2023-03-11T22:58:41.250Z,98814.00
2023-03-11T23:01:09.063Z,98825.00
2023-03-11T23:03:37.023Z,98814.00
2023-03-11T23:06:08.383Z,98818.00
2023-03-11T23:08:35.779Z,98809.00
2023-03-11T23:11:13.263Z,98815.00
2023-03-11T23:13:41.565Z,98820.00
2023-03-11T23:16:16.041Z,98816.00
2023-03-11T23:18:45.515Z,98803.00
2023-03-11T23:21:39.432Z,98803.00
2023-03-11T23:24:10.158Z,98794.00
2023-03-11T23:26:37.890Z,98780.00
2023-03-11T23:29:06.982Z,98799.00
2023-03-11T23:31:33.940Z,98791.00
2023-03-11T23:34:00.827Z,98793.00
2023-03-11T23:36:30.337Z,98738.00
2023-03-11T23:38:58.364Z,98774.00
2023-03-11T23:41:25.377Z,98742.00
2023-03-11T23:43:52.447Z,98780.00
2023-03-11T23:46:19.460Z,98768.00
2023-03-11T23:48:46.348Z,98770.00
2023-03-11T23:51:13.773Z,98774.00
2023-03-11T23:53:41.141Z,98761.00
2023-03-11T23:56:17.954Z,98776.00
2023-03-11T23:58:45.866Z,98776.00
